Time;durP1;ratioP1;P1;durP2;ratioP2;P2;SDS_P1;SDS_P2;PMS_P1;PMS_P2;Temp;Humidity;BMP_temperature;BMP_pressure;BME280_temperature;BME280_humidity;BME280_pressure;Samples;Min_cycle;Max_cycle;Signal;HPM_P1;HPM_P2
2021/01/14 00:01:26;;;;;;;10.15;2.30;;;1.80;82.00;;;;;;4979715;28;20051;-52
2021/01/14 00:03:51;;;;;;;7.88;1.65;;;1.80;82.30;;;;;;4976512;28;20125;-52
2021/01/14 00:06:19;;;;;;;6.90;1.58;;;1.80;82.60;;;;;;4954749;28;20483;-54
2021/01/14 00:08:46;;;;;;;7.28;1.50;;;1.80;82.50;;;;;;4948240;28;20069;-51
2021/01/14 00:11:11;;;;;;;7.85;1.60;;;1.80;82.80;;;;;;4988269;28;20483;-54
2021/01/14 00:13:38;;;;;;;8.27;1.50;;;1.80;82.30;;;;;;4982287;28;20051;-49
2021/01/14 00:16:04;;;;;;;6.45;1.50;;;1.80;82.80;;;;;;4985638;28;20061;-53
2021/01/14 00:18:30;;;;;;;9.02;1.58;;;1.80;83.30;;;;;;4981101;28;20128;-54
2021/01/14 00:20:55;;;;;;;4.15;1.45;;;1.70;83.60;;;;;;4980078;28;20090;-48
2021/01/14 00:23:21;;;;;;;5.90;1.58;;;1.70;83.70;;;;;;4988743;28;20048;-48
2021/01/14 00:25:46;;;;;;;7.57;1.50;;;1.70;84.20;;;;;;4982606;28;20043;-49
2021/01/14 00:28:12;;;;;;;4.47;1.23;;;1.60;84.30;;;;;;4981168;28;20058;-51
2021/01/14 00:30:38;;;;;;;5.90;1.50;;;1.60;84.50;;;;;;4973709;28;20042;-49
2021/01/14 00:33:03;;;;;;;14.10;1.60;;;1.50;84.50;;;;;;4981416;28;20047;-50
2021/01/14 00:35:31;;;;;;;10.40;1.67;;;1.40;84.80;;;;;;4969763;28;20035;-49
2021/01/14 00:37:57;;;;;;;6.43;1.48;;;1.50;85.20;;;;;;4988698;28;20049;-54
2021/01/14 00:40:29;;;;;;;11.27;1.77;;;1.40;85.40;;;;;;4973101;28;20043;-53
2021/01/14 00:43:00;;;;;;;10.02;1.67;;;1.40;85.70;;;;;;4978005;28;20376;-50
2021/01/14 00:45:28;;;;;;;7.50;1.50;;;1.40;85.70;;;;;;4952167;28;20050;-50
2021/01/14 00:47:55;;;;;;;6.05;1.67;;;1.40;85.80;;;;;;4993963;28;20042;-49
2021/01/14 00:50:22;;;;;;;6.55;1.70;;;1.40;86.10;;;;;;4988848;28;20046;-49
2021/01/14 00:52:48;;;;;;;8.15;1.77;;;1.40;86.10;;;;;;4991973;28;20034;-52
2021/01/14 00:55:15;;;;;;;7.20;1.60;;;1.30;86.20;;;;;;4988414;28;20130;-48
2021/01/14 00:57:40;;;;;;;5.47;1.50;;;1.30;86.30;;;;;;4995288;28;20070;-50
2021/01/14 01:00:09;;;;;;;9.68;1.60;;;1.20;86.40;;;;;;4988295;28;20469;-48
2021/01/14 01:02:35;;;;;;;7.63;1.45;;;1.20;86.50;;;;;;4995197;28;20284;-55
2021/01/14 01:05:02;;;;;;;7.72;1.52;;;1.20;86.80;;;;;;4972122;28;20086;-54
2021/01/14 01:07:28;;;;;;;10.10;1.52;;;1.20;86.80;;;;;;4982789;28;20484;-56
2021/01/14 01:09:54;;;;;;;5.53;1.88;;;1.20;87.00;;;;;;4983015;28;20082;-56
2021/01/14 01:12:19;;;;;;;7.70;1.40;;;1.20;86.80;;;;;;4984808;28;20038;-51
2021/01/14 01:14:45;;;;;;;8.85;1.77;;;1.20;87.00;;;;;;4978863;28;20426;-53
2021/01/14 01:17:11;;;;;;;11.00;2.00;;;1.20;87.00;;;;;;4978774;28;20167;-54
2021/01/14 01:19:36;;;;;;;7.55;1.50;;;1.20;87.10;;;;;;4966531;28;20057;-53
2021/01/14 01:22:02;;;;;;;6.00;1.73;;;1.10;87.20;;;;;;4976931;28;20125;-56
2021/01/14 01:24:28;;;;;;;7.53;1.50;;;1.10;87.20;;;;;;4977574;28;20061;-54
2021/01/14 01:26:54;;;;;;;5.40;1.55;;;1.10;87.40;;;;;;4978278;28;20070;-55
2021/01/14 01:29:20;;;;;;;8.60;1.73;;;1.20;87.60;;;;;;4991615;28;20034;-53
2021/01/14 01:31:46;;;;;;;8.15;1.83;;;1.20;87.40;;;;;;4993312;28;20040;-56
2021/01/14 01:34:11;;;;;;;5.78;1.20;;;1.20;87.90;;;;;;4993492;28;20042;-56
2021/01/14 01:36:37;;;;;;;6.18;1.20;;;1.20;87.40;;;;;;4984353;28;20450;-54
2021/01/14 01:39:04;;;;;;;4.75;1.40;;;1.30;87.40;;;;;;4990160;28;20054;-56
2021/01/14 01:41:30;;;;;;;7.43;1.40;;;1.20;87.40;;;;;;4992374;28;20039;-54
2021/01/14 01:43:56;;;;;;;7.43;1.48;;;1.20;87.60;;;;;;4978278;28;20050;-55
2021/01/14 01:46:28;;;;;;;8.70;1.65;;;1.20;87.80;;;;;;4963069;28;20054;-53
2021/01/14 01:48:57;;;;;;;5.72;1.50;;;1.20;87.90;;;;;;4995895;28;20061;-53
2021/01/14 01:51:30;;;;;;;8.45;1.58;;;1.30;88.30;;;;;;4995094;28;20042;-50
2021/01/14 01:53:57;;;;;;;8.70;1.55;;;1.20;88.60;;;;;;4966520;28;20085;-55
2021/01/14 01:56:23;;;;;;;8.70;1.48;;;1.20;88.80;;;;;;4991977;28;20122;-51
2021/01/14 01:58:49;;;;;;;12.50;1.67;;;1.20;89.00;;;;;;4979018;28;20039;-54
2021/01/14 02:01:14;;;;;;;12.05;1.50;;;1.30;89.00;;;;;;4991641;28;20034;-52
2021/01/14 02:03:40;;;;;;;7.07;1.80;;;1.30;89.00;;;;;;4979652;28;20086;-54
2021/01/14 02:06:10;;;;;;;6.43;1.55;;;1.30;89.10;;;;;;4975338;28;20039;-51
2021/01/14 02:08:46;;;;;;;6.25;1.40;;;1.30;89.20;;;;;;4980267;28;20120;-53
2021/01/14 02:11:21;;;;;;;7.60;1.35;;;1.30;89.30;;;;;;4979718;28;20113;-54
2021/01/14 02:14:07;;;;;;;6.22;1.63;;;1.30;89.40;;;;;;4992327;28;20042;-54
2021/01/14 02:16:37;;;;;;;6.13;1.48;;;1.30;89.40;;;;;;4992550;28;20051;-54
2021/01/14 02:19:09;;;;;;;8.93;1.50;;;1.30;89.60;;;;;;4986918;28;20054;-54
2021/01/14 02:21:37;;;;;;;6.72;1.42;;;1.20;89.70;;;;;;4980587;28;20046;-54
2021/01/14 02:24:32;;;;;;;5.65;1.30;;;1.30;89.80;;;;;;4991167;28;20039;-54
2021/01/14 02:26:59;;;;;;;7.82;1.30;;;1.20;89.80;;;;;;4959367;28;20494;-54
2021/01/14 02:29:25;;;;;;;4.97;1.50;;;1.20;89.90;;;;;;4977628;28;20051;-54
2021/01/14 02:31:51;;;;;;;5.70;1.20;;;1.20;90.00;;;;;;4985056;28;20448;-54
2021/01/14 02:34:16;;;;;;;8.15;1.60;;;1.10;90.00;;;;;;4991510;28;20043;-54
2021/01/14 02:36:42;;;;;;;7.25;1.50;;;1.10;90.20;;;;;;4992416;28;20050;-54
2021/01/14 02:39:08;;;;;;;6.88;1.52;;;1.10;90.10;;;;;;4978497;28;20035;-54
2021/01/14 02:41:33;;;;;;;8.35;1.48;;;1.10;90.10;;;;;;4974549;28;20466;-54
2021/01/14 02:43:59;;;;;;;6.20;1.25;;;1.00;90.20;;;;;;4973288;28;20551;-55
2021/01/14 02:46:26;;;;;;;6.18;1.70;;;1.00;90.30;;;;;;4976885;28;20054;-54
2021/01/14 02:49:09;;;;;;;5.75;1.42;;;1.00;90.40;;;;;;4975303;28;20096;-55
2021/01/14 02:51:42;;;;;;;6.55;1.25;;;0.90;90.50;;;;;;4977660;28;20496;-54
2021/01/14 02:54:12;;;;;;;6.35;1.50;;;0.90;90.50;;;;;;4975187;28;20038;-54
2021/01/14 02:56:39;;;;;;;7.38;1.42;;;1.00;90.50;;;;;;4975404;28;20046;-54
2021/01/14 02:59:05;;;;;;;9.93;1.77;;;0.90;90.50;;;;;;4981231;28;20074;-54
2021/01/14 03:01:32;;;;;;;9.13;1.40;;;0.90;90.50;;;;;;4983950;28;20074;-55
2021/01/14 03:03:58;;;;;;;5.68;1.55;;;0.90;90.50;;;;;;4984338;28;20046;-55
2021/01/14 03:06:23;;;;;;;7.40;1.48;;;0.90;90.60;;;;;;4975351;28;20043;-55
2021/01/14 03:08:49;;;;;;;7.13;1.40;;;0.90;90.60;;;;;;4985246;28;20053;-54
2021/01/14 03:11:16;;;;;;;9.38;2.05;;;0.90;90.70;;;;;;4985510;28;20093;-55
2021/01/14 03:13:42;;;;;;;7.13;1.45;;;0.90;90.80;;;;;;4976181;28;20054;-54
2021/01/14 03:16:08;;;;;;;5.72;1.40;;;0.90;90.70;;;;;;4990131;28;20136;-53
2021/01/14 03:18:34;;;;;;;5.50;1.27;;;0.90;90.80;;;;;;4979613;28;20130;-55
2021/01/14 03:21:00;;;;;;;6.95;1.30;;;0.90;90.70;;;;;;4975285;28;20062;-54
2021/01/14 03:23:25;;;;;;;8.45;1.65;;;0.80;90.80;;;;;;4983333;28;20116;-55
2021/01/14 03:25:51;;;;;;;9.82;1.60;;;0.90;90.80;;;;;;4979522;28;20473;-54
2021/01/14 03:28:16;;;;;;;9.60;1.27;;;0.90;90.90;;;;;;5000230;28;20437;-54
2021/01/14 03:30:42;;;;;;;7.35;1.75;;;0.80;90.80;;;;;;4977014;28;20082;-55
2021/01/14 03:33:08;;;;;;;6.05;1.25;;;0.80;90.90;;;;;;4978022;28;20057;-54
2021/01/14 03:35:34;;;;;;;10.38;1.70;;;0.80;91.20;;;;;;4979243;28;20049;-53
2021/01/14 03:37:59;;;;;;;12.45;1.70;;;0.80;91.00;;;;;;4978697;28;20046;-55
2021/01/14 03:40:25;;;;;;;6.28;1.63;;;0.80;91.10;;;;;;4978719;28;20403;-55
2021/01/14 03:42:50;;;;;;;5.93;1.40;;;0.70;91.30;;;;;;4983858;28;20050;-55
2021/01/14 03:45:16;;;;;;;9.32;1.30;;;0.70;91.30;;;;;;4978629;28;20526;-55
2021/01/14 03:47:42;;;;;;;6.80;1.40;;;0.70;91.20;;;;;;4978549;28;20597;-55
2021/01/14 03:50:08;;;;;;;6.22;1.45;;;0.70;91.20;;;;;;4975845;28;20069;-54
2021/01/14 03:52:34;;;;;;;6.22;1.55;;;0.80;91.20;;;;;;4980795;28;20043;-55
2021/01/14 03:55:00;;;;;;;8.43;1.63;;;0.80;91.20;;;;;;4982805;28;20104;-55
2021/01/14 03:57:26;;;;;;;9.68;1.77;;;0.80;91.20;;;;;;4981730;28;20077;-54
2021/01/14 03:59:51;;;;;;;6.50;1.40;;;0.80;91.10;;;;;;4986727;28;20512;-55
2021/01/14 04:02:17;;;;;;;13.57;2.05;;;0.80;91.10;;;;;;4985000;28;20038;-55
2021/01/14 04:04:43;;;;;;;11.65;1.55;;;0.80;91.10;;;;;;4985088;28;20042;-54
2021/01/14 04:07:13;;;;;;;7.50;1.42;;;0.80;91.10;;;;;;4983223;28;20548;-52
2021/01/14 04:09:41;;;;;;;8.70;1.65;;;0.70;91.20;;;;;;4977309;28;20498;-56
2021/01/14 04:12:07;;;;;;;11.15;1.75;;;0.70;91.30;;;;;;4965722;28;20042;-56
2021/01/14 04:14:33;;;;;;;10.73;1.52;;;0.70;91.20;;;;;;4971112;28;20049;-54
2021/01/14 04:16:59;;;;;;;8.18;1.33;;;0.70;91.20;;;;;;4981794;28;20050;-55
2021/01/14 04:19:25;;;;;;;6.82;1.60;;;0.60;91.20;;;;;;4978187;28;20496;-55
2021/01/14 04:21:51;;;;;;;6.82;1.45;;;0.60;91.20;;;;;;4995562;28;20746;-56
2021/01/14 04:24:17;;;;;;;5.80;1.30;;;0.60;91.30;;;;;;4990828;28;20044;-54
2021/01/14 04:26:43;;;;;;;5.68;1.63;;;0.60;91.30;;;;;;4993701;28;20136;-56
2021/01/14 04:29:09;;;;;;;13.68;1.55;;;0.60;91.30;;;;;;4996211;28;20072;-56
2021/01/14 04:31:35;;;;;;;7.85;1.52;;;0.60;91.30;;;;;;4979790;28;20471;-56
2021/01/14 04:34:02;;;;;;;11.43;1.60;;;0.50;91.30;;;;;;4987875;28;20053;-56
2021/01/14 04:36:28;;;;;;;6.53;1.35;;;0.50;91.30;;;;;;4986239;28;20049;-56
2021/01/14 04:38:53;;;;;;;10.73;2.08;;;0.40;91.20;;;;;;4983571;28;20057;-56
2021/01/14 04:41:21;;;;;;;8.88;1.60;;;0.40;91.30;;;;;;4983828;28;20037;-56
2021/01/14 04:43:48;;;;;;;6.97;1.20;;;0.30;91.40;;;;;;4996982;28;20038;-56
2021/01/14 04:46:14;;;;;;;7.25;1.73;;;0.30;91.40;;;;;;4988315;28;20406;-54
2021/01/14 04:48:39;;;;;;;6.13;1.60;;;0.30;91.40;;;;;;4979711;28;20126;-54
2021/01/14 04:51:20;;;;;;;8.73;1.52;;;0.30;91.40;;;;;;4978604;28;20534;-56
2021/01/14 04:53:49;;;;;;;6.88;1.65;;;0.20;91.40;;;;;;4979358;28;20051;-56
2021/01/14 04:56:16;;;;;;;5.47;1.80;;;0.20;91.50;;;;;;4987172;28;20042;-57
2021/01/14 04:58:45;;;;;;;9.02;1.73;;;0.20;91.70;;;;;;4963602;28;20046;-54
2021/01/14 05:01:22;;;;;;;8.75;1.50;;;0.10;91.40;;;;;;4979491;28;20034;-55
2021/01/14 05:03:50;;;;;;;11.43;1.40;;;0.10;91.50;;;;;;4985956;28;20133;-56
2021/01/14 05:06:18;;;;;;;5.60;1.33;;;0.00;91.40;;;;;;4989017;28;20038;-56
2021/01/14 05:08:45;;;;;;;8.48;1.40;;;0.00;91.50;;;;;;4992315;28;20407;-56
2021/01/14 05:11:18;;;;;;;7.00;1.67;;;-0.10;91.50;;;;;;4978823;28;20046;-56
2021/01/14 05:13:45;;;;;;;6.72;1.48;;;-0.10;91.60;;;;;;4991074;28;20109;-55
2021/01/14 05:16:12;;;;;;;5.97;1.33;;;-0.20;91.60;;;;;;4983526;28;20038;-56
2021/01/14 05:18:38;;;;;;;10.68;1.45;;;-0.20;91.60;;;;;;4995548;28;20042;-54
2021/01/14 05:21:04;;;;;;;7.10;1.45;;;-0.20;91.70;;;;;;4966115;28;20400;-56
2021/01/14 05:23:33;;;;;;;7.47;1.30;;;-0.30;91.60;;;;;;4976223;28;20046;-56
2021/01/14 05:26:00;;;;;;;10.15;1.65;;;-0.30;91.70;;;;;;4990192;28;20041;-56
2021/01/14 05:28:27;;;;;;;5.35;1.38;;;-0.40;91.80;;;;;;4977710;28;20054;-56
2021/01/14 05:30:54;;;;;;;7.00;1.38;;;-0.40;91.80;;;;;;4959991;28;20498;-56
2021/01/14 05:33:21;;;;;;;10.63;2.17;;;-0.40;91.80;;;;;;4994397;28;20117;-50
2021/01/14 05:35:50;;;;;;;12.20;1.52;;;-0.40;91.80;;;;;;4956882;28;20046;-57
2021/01/14 05:38:30;;;;;;;5.90;1.40;;;-0.40;91.90;;;;;;4980893;28;20042;-50
2021/01/14 05:41:18;;;;;;;10.05;1.65;;;-0.50;92.00;;;;;;4973655;28;20411;-52
2021/01/14 05:43:54;;;;;;;4.93;1.70;;;-0.40;92.00;;;;;;4993760;28;20467;-54
2021/01/14 05:46:23;;;;;;;7.78;1.80;;;-0.50;91.90;;;;;;4985851;28;20047;-53
2021/01/14 05:48:50;;;;;;;9.82;1.80;;;-0.50;91.90;;;;;;4975341;28;20043;-53
2021/01/14 05:51:21;;;;;;;7.93;1.67;;;-0.50;91.90;;;;;;4983448;28;20061;-53
2021/01/14 05:53:55;;;;;;;4.40;1.70;;;-0.50;91.80;;;;;;4984911;28;20074;-57
2021/01/14 05:56:34;;;;;;;4.18;1.55;;;-0.60;91.80;;;;;;4989052;28;20038;-54
2021/01/14 05:59:02;;;;;;;8.30;1.85;;;-0.60;91.90;;;;;;4990721;28;20097;-56
2021/01/14 06:01:27;;;;;;;6.15;1.45;;;-0.70;91.80;;;;;;4988791;28;20047;-53
2021/01/14 06:03:53;;;;;;;4.78;1.52;;;-0.70;91.80;;;;;;4990330;28;20551;-55
2021/01/14 06:06:20;;;;;;;7.07;1.55;;;-0.70;91.90;;;;;;4992141;28;20092;-56
2021/01/14 06:08:46;;;;;;;7.35;2.25;;;-0.70;91.90;;;;;;4983839;28;20095;-52
2021/01/14 06:11:23;;;;;;;7.47;1.65;;;-0.70;92.00;;;;;;4985901;28;20403;-51
2021/01/14 06:13:50;;;;;;;7.45;1.48;;;-0.70;91.90;;;;;;4985082;28;20121;-48
2021/01/14 06:16:16;;;;;;;7.18;1.70;;;-0.80;91.90;;;;;;4990336;28;20042;-53
2021/01/14 06:19:05;;;;;;;6.00;1.50;;;-0.80;91.90;;;;;;4991368;28;20034;-50
2021/01/14 06:21:48;;;;;;;5.10;1.60;;;-0.80;92.10;;;;;;4985088;28;20069;-50
2021/01/14 06:24:31;;;;;;;8.23;1.30;;;-0.80;92.00;;;;;;4992451;28;20034;-51
2021/01/14 06:26:58;;;;;;;;;;;-0.80;92.00;;;;;;4989874;28;20121;-49
2021/01/14 06:29:28;;;;;;;3.58;1.08;;;-0.80;92.00;;;;;;4991961;28;19917;-51
2021/01/14 06:32:14;;;;;;;5.78;1.40;;;-0.80;92.00;;;;;;4986182;28;20050;-53
2021/01/14 06:34:41;;;;;;;7.03;1.60;;;-0.80;91.90;;;;;;4990549;28;20066;-53
2021/01/14 06:37:29;;;;;;;7.85;1.60;;;-0.90;91.80;;;;;;4979756;28;20141;-52
2021/01/14 06:39:59;;;;;;;5.15;1.48;;;-0.90;91.80;;;;;;4992544;28;20034;-49
2021/01/14 06:42:28;;;;;;;4.43;1.30;;;-0.90;91.80;;;;;;4980475;28;20038;-53
2021/01/14 06:44:59;;;;;;;5.00;1.58;;;-0.90;91.90;;;;;;4978409;28;20530;-55
2021/01/14 06:47:36;;;;;;;4.32;1.45;;;-1.00;91.90;;;;;;4983880;28;20054;-56
2021/01/14 06:50:12;;;;;;;8.13;1.50;;;-1.00;91.90;;;;;;4977510;28;20038;-56
2021/01/14 06:52:43;;;;;;;6.05;1.50;;;-1.00;91.90;;;;;;4986177;28;20507;-55
2021/01/14 06:55:23;;;;;;;4.25;1.30;;;-1.10;91.90;;;;;;4978692;28;20062;-56
2021/01/14 06:58:10;;;;;;;8.00;1.60;;;-1.10;92.00;;;;;;4980822;28;20464;-56
2021/01/14 07:00:40;;;;;;;4.00;1.30;;;-1.10;92.00;;;;;;4978817;28;20051;-55
2021/01/14 07:03:22;;;;;;;6.70;1.38;;;-1.10;92.00;;;;;;4978274;28;20108;-56
2021/01/14 07:05:54;;;;;;;5.60;1.40;;;-1.10;92.00;;;;;;4979446;28;20034;-56
2021/01/14 07:09:13;;;;;;;5.53;1.40;;;-1.10;92.00;;;;;;4977979;28;20049;-53
2021/01/14 07:11:43;;;;;;;4.22;1.77;;;-1.00;92.00;;;;;;4919634;29;20058;-56
2021/01/14 07:14:14;;;;;;;7.57;2.10;;;-1.10;91.90;;;;;;4975826;28;20133;-56
2021/01/14 07:16:42;;;;;;;7.60;2.50;;;-1.00;91.90;;;;;;4984251;28;20046;-53
2021/01/14 07:19:08;;;;;;;11.95;2.60;;;-1.00;91.90;;;;;;4978531;28;20072;-56
2021/01/14 07:21:36;;;;;;;9.07;2.65;;;-1.00;91.90;;;;;;4977706;28;20061;-56
2021/01/14 07:24:12;;;;;;;8.43;2.28;;;-0.90;91.90;;;;;;4985900;28;20061;-54
2021/01/14 07:26:43;;;;;;;14.10;3.42;;;-0.90;91.90;;;;;;4980830;28;20050;-55
2021/01/14 07:29:11;;;;;;;9.10;2.10;;;-0.90;91.80;;;;;;4984747;28;20053;-56
2021/01/14 07:31:54;;;;;;;8.23;2.08;;;-0.90;91.80;;;;;;4979733;28;20046;-54
2021/01/14 07:34:45;;;;;;;8.95;1.92;;;-0.80;91.80;;;;;;4984635;28;20087;-56
2021/01/14 07:37:16;;;;;;;5.97;1.80;;;-0.80;91.80;;;;;;4990450;28;20117;-53
2021/01/14 07:39:50;;;;;;;8.00;1.88;;;-0.90;91.60;;;;;;4983787;28;20042;-53
2021/01/14 07:42:32;;;;;;;5.50;1.95;;;-0.90;91.60;;;;;;4986244;28;20042;-54
2021/01/14 07:45:07;;;;;;;6.50;1.80;;;-0.90;91.60;;;;;;4981816;28;20045;-54
2021/01/14 07:47:37;;;;;;;7.53;1.70;;;-0.90;91.60;;;;;;4979824;28;20042;-54
2021/01/14 07:50:20;;;;;;;6.43;1.58;;;-1.00;91.60;;;;;;4978357;28;20398;-54
2021/01/14 07:52:57;;;;;;;8.50;1.63;;;-1.00;91.50;;;;;;4959497;28;20476;-54
2021/01/14 07:55:25;;;;;;;7.40;1.70;;;-1.00;91.50;;;;;;4981135;28;20047;-54
2021/01/14 07:58:15;;;;;;;4.40;1.58;;;-1.00;91.70;;;;;;4977103;28;20499;-53
2021/01/14 08:00:41;;;;;;;9.70;1.80;;;-1.00;91.50;;;;;;4981638;28;20065;-51
2021/01/14 08:03:14;;;;;;;6.45;1.67;;;-1.00;91.50;;;;;;4966663;28;20038;-50
2021/01/14 08:05:56;;;;;;;10.48;2.70;;;-1.00;91.50;;;;;;4980924;28;20034;-54
2021/01/14 08:08:35;;;;;;;10.25;2.33;;;-1.00;91.50;;;;;;4980356;28;20042;-53
2021/01/14 08:11:07;;;;;;;8.98;2.03;;;-0.90;91.50;;;;;;4944762;28;20042;-54
2021/01/14 08:14:06;;;;;;;7.38;2.13;;;-0.90;91.50;;;;;;4985199;28;20129;-54
2021/01/14 08:16:36;;;;;;;11.57;4.10;;;-1.00;91.40;;;;;;4982702;28;20130;-54
2021/01/14 08:19:21;;;;;;;18.33;5.28;;;-0.90;91.50;;;;;;4989741;28;20046;-55
2021/01/14 08:21:48;;;;;;;12.43;4.05;;;-1.00;91.50;;;;;;4983767;28;20042;-54
2021/01/14 08:24:46;;;;;;;12.10;4.60;;;-0.90;91.60;;;;;;4984297;28;20046;-54
2021/01/14 08:27:14;;;;;;;16.85;5.15;;;-0.90;91.50;;;;;;4990101;28;20396;-54
2021/01/14 08:29:42;;;;;;;23.52;9.18;;;-0.90;91.40;;;;;;4973305;28;20088;-54
2021/01/14 08:32:26;;;;;;;32.92;9.80;;;-0.90;91.30;;;;;;4986615;28;20050;-54
2021/01/14 08:34:53;;;;;;;26.10;8.23;;;-0.90;91.30;;;;;;4978599;28;20130;-54
2021/01/14 08:37:48;;;;;;;22.10;7.90;;;-0.90;91.40;;;;;;4984730;28;20046;-54
2021/01/14 08:40:17;;;;;;;20.38;7.57;;;-0.80;91.40;;;;;;4973473;28;20117;-54
2021/01/14 08:42:47;;;;;;;17.40;6.95;;;-0.90;91.50;;;;;;4978515;28;20476;-54
2021/01/14 08:45:15;;;;;;;12.10;3.50;;;-0.90;91.40;;;;;;4981614;28;20077;-54
2021/01/14 08:47:54;;;;;;;10.10;3.72;;;-0.80;91.60;;;;;;4986682;28;20257;-54
2021/01/14 08:50:35;;;;;;;9.60;3.22;;;-0.80;91.60;;;;;;4983713;28;20103;-53
2021/01/14 08:53:20;;;;;;;9.23;2.83;;;-0.80;91.60;;;;;;4982711;28;21993;-54
2021/01/14 08:55:57;;;;;;;10.35;2.58;;;-0.70;91.70;;;;;;4974230;28;20046;-54
2021/01/14 08:58:42;;;;;;;12.02;2.97;;;-0.70;91.60;;;;;;4983860;28;20089;-51
2021/01/14 09:01:18;;;;;;;10.63;3.00;;;-0.70;91.60;;;;;;4982591;28;20047;-55
2021/01/14 09:03:47;;;;;;;16.05;6.28;;;-0.70;91.90;;;;;;4987516;28;20039;-52
2021/01/14 09:06:13;;;;;;;18.88;5.80;;;-0.60;91.70;;;;;;4987943;28;20030;-54
2021/01/14 09:08:39;;;;;;;12.82;5.53;;;-0.60;91.60;;;;;;4991274;28;20069;-54
2021/01/14 09:11:06;;;;;;;12.00;5.30;;;-0.60;91.70;;;;;;4954536;28;20078;-55
2021/01/14 09:13:33;;;;;;;18.13;6.20;;;-0.50;91.70;;;;;;4989529;28;20085;-54
2021/01/14 09:16:10;;;;;;;16.10;6.80;;;-0.40;91.80;;;;;;4990458;28;20097;-55
2021/01/14 09:18:40;;;;;;;20.13;7.40;;;-0.40;91.60;;;;;;4992453;28;20054;-53
2021/01/14 09:21:07;;;;;;;15.90;5.78;;;-0.40;91.70;;;;;;4986936;28;20035;-54
2021/01/14 09:23:35;;;;;;;23.17;6.00;;;-0.20;91.60;;;;;;4993362;28;20073;-55
2021/01/14 09:26:11;;;;;;;16.25;6.07;;;-0.10;91.60;;;;;;4989284;28;20049;-55
2021/01/14 09:28:37;;;;;;;19.75;6.95;;;0.00;91.60;;;;;;4991928;28;20046;-55
2021/01/14 09:31:07;;;;;;;19.40;7.10;;;0.00;91.50;;;;;;4990983;28;20053;-54
2021/01/14 09:33:38;;;;;;;15.73;5.72;;;0.10;91.50;;;;;;4988957;28;20093;-55
2021/01/14 09:36:06;;;;;;;14.85;5.30;;;0.10;91.50;;;;;;4989080;28;20451;-54
2021/01/14 09:38:59;;;;;;;10.30;4.85;;;0.20;91.50;;;;;;4989702;28;20053;-54
2021/01/14 09:41:32;;;;;;;16.85;4.68;;;0.20;91.40;;;;;;4984891;28;20035;-55
2021/01/14 09:43:59;;;;;;;16.73;5.10;;;0.30;91.40;;;;;;4989160;28;20428;-54
2021/01/14 09:46:34;;;;;;;11.88;4.68;;;0.40;91.30;;;;;;4990885;28;20511;-52
2021/01/14 09:49:05;;;;;;;10.55;4.25;;;0.50;91.10;;;;;;4978843;28;20162;-54
2021/01/14 09:51:31;;;;;;;10.43;3.80;;;0.80;90.60;;;;;;4988162;28;20046;-55
2021/01/14 09:53:57;;;;;;;11.27;4.47;;;0.90;90.40;;;;;;4988352;28;20124;-55
2021/01/14 09:56:30;;;;;;;14.82;4.57;;;1.00;90.40;;;;;;4990546;28;20112;-55
2021/01/14 09:59:13;;;;;;;10.23;5.03;;;1.00;90.40;;;;;;4981947;28;20054;-54
2021/01/14 10:01:43;;;;;;;10.95;4.13;;;1.00;90.40;;;;;;4964512;28;20046;-53
2021/01/14 10:04:18;;;;;;;13.98;4.80;;;1.10;90.50;;;;;;4979484;28;20038;-53
2021/01/14 10:06:51;;;;;;;10.57;4.03;;;1.20;90.30;;;;;;4986023;28;20039;-53
2021/01/14 10:09:17;;;;;;;13.80;4.63;;;1.30;90.20;;;;;;4985293;28;20047;-53
2021/01/14 10:11:43;;;;;;;12.32;4.63;;;1.30;90.10;;;;;;4970794;28;20550;-55
2021/01/14 10:14:20;;;;;;;13.82;4.55;;;1.50;89.60;;;;;;4988436;28;20125;-52
2021/01/14 10:16:46;;;;;;;16.05;4.80;;;1.50;89.60;;;;;;4951463;28;20054;-55
2021/01/14 10:19:15;;;;;;;19.35;5.00;;;1.60;89.40;;;;;;4983530;28;20061;-50
2021/01/14 10:21:42;;;;;;;12.60;4.97;;;1.60;90.00;;;;;;4978011;28;20173;-55
2021/01/14 10:24:22;;;;;;;13.32;4.80;;;1.70;89.70;;;;;;4983138;28;20301;-51
2021/01/14 10:26:48;;;;;;;14.75;4.80;;;1.90;87.80;;;;;;4984505;28;20168;-53
2021/01/14 10:29:31;;;;;;;13.68;5.10;;;1.90;88.10;;;;;;4988383;28;20502;-53
2021/01/14 10:32:03;;;;;;;;;;;2.00;87.10;;;;;;4987403;28;20035;-50
2021/01/14 10:34:50;;;;;;;13.05;4.53;;;2.10;88.20;;;;;;4985783;28;19921;-56
2021/01/14 10:37:26;;;;;;;13.50;4.22;;;2.00;87.90;;;;;;4987784;28;20042;-54
2021/01/14 10:39:54;;;;;;;11.70;4.53;;;2.20;86.90;;;;;;4990717;28;20042;-53
2021/01/14 10:42:34;;;;;;;13.70;4.90;;;2.20;86.70;;;;;;4989054;28;20132;-54
2021/01/14 10:45:05;;;;;;;15.32;5.35;;;2.20;86.90;;;;;;4983989;28;20061;-54
2021/01/14 10:47:32;;;;;;;14.18;5.50;;;2.10;87.70;;;;;;4986170;28;20046;-53
2021/01/14 10:49:58;;;;;;;12.73;5.00;;;2.20;86.80;;;;;;4981152;28;20100;-53
2021/01/14 10:52:24;;;;;;;13.98;4.75;;;2.20;87.40;;;;;;4982042;28;20077;-54
2021/01/14 10:55:00;;;;;;;14.95;5.32;;;2.30;87.00;;;;;;4977164;28;20071;-53
2021/01/14 10:57:48;;;;;;;14.85;4.75;;;2.30;87.00;;;;;;4976320;28;20078;-54
2021/01/14 11:00:15;;;;;;;16.77;5.22;;;2.40;86.20;;;;;;4980153;28;20043;-54
2021/01/14 11:02:42;;;;;;;14.27;5.82;;;2.40;86.30;;;;;;4981860;28;20037;-54
2021/01/14 11:05:09;;;;;;;10.43;4.43;;;2.40;87.30;;;;;;4980252;28;20479;-54
2021/01/14 11:07:34;;;;;;;10.63;5.20;;;2.30;87.70;;;;;;4979283;28;20402;-55
2021/01/14 11:10:09;;;;;;;13.82;5.35;;;2.40;87.20;;;;;;4979373;28;20126;-54
2021/01/14 11:12:55;;;;;;;14.55;5.47;;;2.40;87.40;;;;;;4989147;28;20046;-54
2021/01/14 11:15:20;;;;;;;13.00;5.68;;;2.50;86.90;;;;;;4991538;28;20046;-53
2021/01/14 11:17:46;;;;;;;15.18;5.97;;;2.50;87.00;;;;;;4977155;28;20097;-53
2021/01/14 11:20:12;;;;;;;15.65;5.95;;;2.50;87.20;;;;;;4980867;28;20039;-55
2021/01/14 11:22:41;;;;;;;13.10;4.47;;;2.60;86.80;;;;;;4985179;28;20110;-52
2021/01/14 11:25:07;;;;;;;12.55;5.90;;;2.60;86.10;;;;;;4984699;28;20046;-55
2021/01/14 11:27:33;;;;;;;15.07;5.38;;;2.70;85.70;;;;;;4975258;28;20093;-55
2021/01/14 11:29:58;;;;;;;19.95;6.60;;;2.60;86.70;;;;;;4989985;28;20050;-55
2021/01/14 11:32:24;;;;;;;15.02;6.25;;;2.60;86.90;;;;;;4990259;28;20077;-55
2021/01/14 11:34:49;;;;;;;12.60;5.15;;;2.70;86.60;;;;;;4990594;28;20042;-55
2021/01/14 11:37:15;;;;;;;10.93;4.93;;;2.70;86.00;;;;;;4979976;28;20051;-54
2021/01/14 11:39:40;;;;;;;12.88;5.78;;;2.80;85.50;;;;;;4976468;28;20038;-54
2021/01/14 11:42:06;;;;;;;12.98;5.72;;;2.90;84.90;;;;;;4973362;28;20038;-53
2021/01/14 11:44:32;;;;;;;13.50;5.70;;;2.80;85.80;;;;;;4967584;28;20211;-53
2021/01/14 11:46:58;;;;;;;15.95;6.78;;;2.80;85.60;;;;;;4988136;28;20129;-53
2021/01/14 11:49:23;;;;;;;12.98;5.97;;;2.90;85.20;;;;;;4974785;28;20038;-55
2021/01/14 11:51:50;;;;;;;16.15;6.00;;;2.80;85.20;;;;;;4979280;28;20053;-54
2021/01/14 11:54:15;;;;;;;11.75;5.78;;;2.90;84.60;;;;;;4977724;28;20042;-54
2021/01/14 11:56:41;;;;;;;13.32;5.68;;;3.00;84.30;;;;;;4981075;28;20034;-53
2021/01/14 11:59:07;;;;;;;20.33;7.10;;;2.90;84.20;;;;;;4976167;28;20042;-55
2021/01/14 12:01:32;;;;;;;13.98;6.18;;;2.80;85.50;;;;;;4980165;28;20034;-55
2021/01/14 12:03:58;;;;;;;17.20;6.60;;;2.90;85.40;;;;;;4980429;28;20045;-54
2021/01/14 12:06:23;;;;;;;16.60;5.95;;;2.90;84.80;;;;;;4981342;28;20070;-55
2021/01/14 12:08:49;;;;;;;16.00;6.00;;;2.80;85.10;;;;;;4978097;28;20138;-54
2021/01/14 12:11:18;;;;;;;18.00;6.15;;;2.80;85.00;;;;;;4974120;28;20038;-55
2021/01/14 12:13:43;;;;;;;15.00;6.57;;;2.90;84.30;;;;;;4981775;28;20415;-55
2021/01/14 12:16:09;;;;;;;13.90;5.45;;;2.80;84.70;;;;;;4969071;28;20049;-55
2021/01/14 12:18:35;;;;;;;11.60;5.95;;;2.80;84.80;;;;;;4985585;28;20197;-54
2021/01/14 12:21:00;;;;;;;17.45;6.60;;;2.80;85.00;;;;;;4978271;28;20042;-55
2021/01/14 12:23:26;;;;;;;19.67;5.88;;;2.80;84.80;;;;;;4985479;28;20043;-55
2021/01/14 12:25:52;;;;;;;13.57;5.80;;;2.80;85.10;;;;;;4985987;28;20491;-54
2021/01/14 12:28:18;;;;;;;13.00;5.95;;;2.70;85.20;;;;;;4986655;28;20133;-55
2021/01/14 12:30:43;;;;;;;16.35;6.97;;;2.70;86.10;;;;;;4982193;28;20060;-51
2021/01/14 12:33:09;;;;;;;13.45;5.85;;;2.60;86.00;;;;;;4982711;28;20071;-54
2021/01/14 12:35:37;;;;;;;14.32;6.25;;;2.70;85.70;;;;;;4990445;28;20046;-54
2021/01/14 12:38:02;;;;;;;19.13;6.70;;;2.70;85.30;;;;;;4985728;28;20137;-54
2021/01/14 12:40:29;;;;;;;14.90;6.47;;;2.60;86.20;;;;;;4990010;28;20125;-55
2021/01/14 12:42:55;;;;;;;15.00;6.45;;;2.60;86.90;;;;;;4986835;28;20043;-52
2021/01/14 12:45:20;;;;;;;16.25;6.75;;;2.60;87.30;;;;;;4992490;28;20454;-54
2021/01/14 12:47:46;;;;;;;14.60;6.28;;;2.60;87.70;;;;;;4989793;28;20056;-52
2021/01/14 12:50:12;;;;;;;14.02;6.05;;;2.60;87.90;;;;;;4973796;28;20038;-52
2021/01/14 12:52:38;;;;;;;12.73;6.25;;;2.70;87.40;;;;;;4953492;28;20495;-51
2021/01/14 12:55:04;;;;;;;16.52;6.78;;;2.70;87.20;;;;;;4986865;28;20041;-54
2021/01/14 12:57:30;;;;;;;13.02;5.53;;;2.70;87.40;;;;;;4994840;28;20438;-54
2021/01/14 12:59:55;;;;;;;19.33;6.50;;;2.70;87.30;;;;;;4983739;28;20058;-53
2021/01/14 13:02:21;;;;;;;17.17;7.30;;;2.70;86.30;;;;;;4992035;28;20041;-53
2021/01/14 13:04:46;;;;;;;17.17;6.22;;;2.80;85.60;;;;;;4991308;28;20038;-55